PWSweather.com
Personal Weather Stations
Station Observations
WD4JKH
Forsyth, GA 31029

Forsyth, GA 31029

Lat: 33.033225, Lon: -83.927995

Elevation: 709

Station Type: Davis Vantage VUE

High Low Average
Temperature 94.7°F34.8°C 75.7°F24.3°C 85.0°F29.4°C
Dew Point 79.2°F26.2°C 73.2°F22.9°C 76.0°F24.4°C
Winds 7.1 mph 11.4 kmh Calm Calm 1.0 mph E1.6 kmh E
Wind Gusts 12.0 mph19.3 kmh -- 4.0 mph6.4 kmh
Humidity 95% 51% 76%
Pressure 29.97 in1014.9 mb 29.87 in1011.5 mb -
Precipitation 0.00 in0.0 mm - -
Hour Temp Dew Point Humidity Winds Wind Gusts Pressure Precip Precip Rate Daily Precip Total
12:04 AM 79.9°F26.6°C 75.7°F24.3°C 87% 1.0 mph NNE1.6 kmh NNE 1.0 mph1.6 kmh 29.93 in1013.5 mb 0.00 in0.0 mm 0.00 in0.0 mm 0.00 in0.0 mm
12:09 AM 79.7°F26.5°C 75.8°F24.3°C 88% Calm Calm 1.0 mph1.6 kmh 29.93 in1013.5 mb 0.00 in0.0 mm 0.00 in0.0 mm 0.00 in0.0 mm
12:14 AM 79.7°F26.5°C 75.8°F24.3°C 88% 1.0 mph NNE1.6 kmh NNE 1.0 mph1.6 kmh 29.93 in1013.5 mb 0.00 in0.0 mm 0.00 in0.0 mm 0.00 in0.0 mm
12:19 AM 79.6°F26.4°C 76.1°F24.5°C 89% Calm Calm 1.0 mph1.6 kmh 29.93 in1013.5 mb 0.00 in0.0 mm 0.00 in0.0 mm 0.00 in0.0 mm
12:24 AM 79.6°F26.4°C 76.1°F24.5°C 89% 1.0 mph NE1.6 kmh NE 1.0 mph1.6 kmh 29.93 in1013.5 mb 0.00 in0.0 mm 0.00 in0.0 mm 0.00 in0.0 mm
12:29 AM 79.5°F26.4°C 76.0°F24.4°C 89% 1.0 mph NE1.6 kmh NE 1.0 mph1.6 kmh 29.93 in1013.5 mb 0.00 in0.0 mm 0.00 in0.0 mm 0.00 in0.0 mm
12:34 AM 79.4°F26.3°C 75.9°F24.4°C 89% Calm Calm 1.0 mph1.6 kmh 29.92 in1013.2 mb 0.00 in0.0 mm 0.00 in0.0 mm 0.00 in0.0 mm
12:39 AM 79.4°F26.3°C 75.9°F24.4°C 89% 1.0 mph NE1.6 kmh NE 1.0 mph1.6 kmh 29.92 in1013.2 mb 0.00 in0.0 mm 0.00 in0.0 mm 0.00 in0.0 mm
12:44 AM 79.4°F26.3°C 75.9°F24.4°C 89% Calm Calm 1.0 mph1.6 kmh 29.92 in1013.2 mb 0.00 in0.0 mm 0.00 in0.0 mm 0.00 in0.0 mm
12:49 AM 79.4°F26.3°C 75.9°F24.4°C 89% Calm Calm 1.0 mph1.6 kmh 29.92 in1013.2 mb 0.00 in0.0 mm 0.00 in0.0 mm 0.00 in0.0 mm
12:54 AM 79.4°F26.3°C 76.2°F24.6°C 90% Calm Calm 1.0 mph1.6 kmh 29.92 in1013.2 mb 0.00 in0.0 mm 0.00 in0.0 mm 0.00 in0.0 mm
12:59 AM 79.6°F26.4°C 76.4°F24.7°C 90% Calm Calm -- 29.92 in1013.2 mb 0.00 in0.0 mm 0.00 in0.0 mm 0.00 in0.0 mm
01:04 AM 79.5°F26.4°C 76.0°F24.4°C 89% Calm Calm -- 29.92 in1013.2 mb 0.00 in0.0 mm 0.00 in0.0 mm 0.00 in0.0 mm
01:09 AM 79.4°F26.3°C 75.9°F24.4°C 89% Calm Calm -- 29.92 in1013.2 mb 0.00 in0.0 mm 0.00 in0.0 mm 0.00 in0.0 mm
01:14 AM 79.4°F26.3°C 75.9°F24.4°C 89% Calm Calm -- 29.92 in1013.2 mb 0.00 in0.0 mm 0.00 in0.0 mm 0.00 in0.0 mm
01:19 AM 79.4°F26.3°C 75.9°F24.4°C 89% Calm Calm -- 29.91 in1012.9 mb 0.00 in0.0 mm 0.00 in0.0 mm 0.00 in0.0 mm
01:24 AM 79.4°F26.3°C 75.9°F24.4°C 89% Calm Calm -- 29.91 in1012.9 mb 0.00 in0.0 mm 0.00 in0.0 mm 0.00 in0.0 mm
01:29 AM 79.3°F26.3°C 75.8°F24.3°C 89% Calm Calm -- 29.91 in1012.9 mb 0.00 in0.0 mm 0.00 in0.0 mm 0.00 in0.0 mm
01:34 AM 79.3°F26.3°C 75.8°F24.3°C 89% 1.0 mph NE1.6 kmh NE 1.0 mph1.6 kmh 29.91 in1012.9 mb 0.00 in0.0 mm 0.00 in0.0 mm 0.00 in0.0 mm
01:39 AM 79.4°F26.3°C 75.9°F24.4°C 89% 1.0 mph N1.6 kmh N 1.0 mph1.6 kmh 29.91 in1012.9 mb 0.00 in0.0 mm 0.00 in0.0 mm 0.00 in0.0 mm
01:44 AM 79.3°F26.3°C 75.8°F24.3°C 89% Calm Calm 1.0 mph1.6 kmh 29.91 in1012.9 mb 0.00 in0.0 mm 0.00 in0.0 mm 0.00 in0.0 mm
01:49 AM 79.3°F26.3°C 75.8°F24.3°C 89% Calm Calm 1.0 mph1.6 kmh 29.91 in1012.9 mb 0.00 in0.0 mm 0.00 in0.0 mm 0.00 in0.0 mm
01:54 AM 79.2°F26.2°C 76.0°F24.4°C 90% 1.5 mph NE2.4 kmh NE 3.0 mph4.8 kmh 29.91 in1012.9 mb 0.00 in0.0 mm 0.00 in0.0 mm 0.00 in0.0 mm
01:59 AM 79.1°F26.2°C 75.9°F24.4°C 90% Calm Calm 3.0 mph4.8 kmh 29.91 in1012.9 mb 0.00 in0.0 mm 0.00 in0.0 mm 0.00 in0.0 mm
02:04 AM 79.0°F26.1°C 76.1°F24.5°C 91% 1.0 mph NE1.6 kmh NE 3.0 mph4.8 kmh 29.91 in1012.9 mb 0.00 in0.0 mm 0.00 in0.0 mm 0.00 in0.0 mm
02:09 AM 79.0°F26.1°C 76.1°F24.5°C 91% 1.2 mph ENE1.9 kmh ENE 3.0 mph4.8 kmh 29.91 in1012.9 mb 0.00 in0.0 mm 0.00 in0.0 mm 0.00 in0.0 mm
02:14 AM 78.8°F26.0°C 75.9°F24.4°C 91% 1.0 mph ENE1.6 kmh ENE 2.0 mph3.2 kmh 29.91 in1012.9 mb 0.00 in0.0 mm 0.00 in0.0 mm 0.00 in0.0 mm
02:19 AM 78.7°F25.9°C 75.8°F24.3°C 91% 1.2 mph ENE1.9 kmh ENE 3.0 mph4.8 kmh 29.90 in1012.5 mb 0.00 in0.0 mm 0.00 in0.0 mm 0.00 in0.0 mm
02:24 AM 78.8°F26.0°C 75.9°F24.4°C 91% 1.8 mph ENE2.9 kmh ENE 3.0 mph4.8 kmh 29.90 in1012.5 mb 0.00 in0.0 mm 0.00 in0.0 mm 0.00 in0.0 mm
02:29 AM 78.8°F26.0°C 75.9°F24.4°C 91% 1.1 mph ENE1.8 kmh ENE 3.0 mph4.8 kmh 29.90 in1012.5 mb 0.00 in0.0 mm 0.00 in0.0 mm 0.00 in0.0 mm
02:34 AM 78.6°F25.9°C 75.8°F24.3°C 91% 1.6 mph ENE2.6 kmh ENE 3.0 mph4.8 kmh 29.90 in1012.5 mb 0.00 in0.0 mm 0.00 in0.0 mm 0.00 in0.0 mm
02:39 AM 78.6°F25.9°C 75.7°F24.3°C 91% 1.5 mph ENE2.4 kmh ENE 3.0 mph4.8 kmh 29.90 in1012.5 mb 0.00 in0.0 mm 0.00 in0.0 mm 0.00 in0.0 mm
02:44 AM 78.6°F25.9°C 76.1°F24.5°C 92% 1.0 mph ENE1.6 kmh ENE 3.0 mph4.8 kmh 29.90 in1012.5 mb 0.00 in0.0 mm 0.00 in0.0 mm 0.00 in0.0 mm
02:49 AM 78.6°F25.9°C 76.1°F24.5°C 92% 1.3 mph ENE2.1 kmh ENE 3.0 mph4.8 kmh 29.90 in1012.5 mb 0.00 in0.0 mm 0.00 in0.0 mm 0.00 in0.0 mm
02:54 AM 78.6°F25.9°C 76.1°F24.5°C 92% 1.0 mph ENE1.6 kmh ENE 2.0 mph3.2 kmh 29.90 in1012.5 mb 0.00 in0.0 mm 0.00 in0.0 mm 0.00 in0.0 mm
02:59 AM 78.6°F25.9°C 75.7°F24.3°C 91% 1.5 mph ENE2.4 kmh ENE 2.0 mph3.2 kmh 29.90 in1012.5 mb 0.00 in0.0 mm 0.00 in0.0 mm 0.00 in0.0 mm
03:04 AM 78.6°F25.9°C 75.7°F24.3°C 91% 1.5 mph ENE2.4 kmh ENE 2.0 mph3.2 kmh 29.90 in1012.5 mb 0.00 in0.0 mm 0.00 in0.0 mm 0.00 in0.0 mm
03:09 AM 78.6°F25.9°C 75.7°F24.3°C 91% Calm Calm 2.0 mph3.2 kmh 29.90 in1012.5 mb 0.00 in0.0 mm 0.00 in0.0 mm 0.00 in0.0 mm
03:14 AM 78.5°F25.8°C 75.6°F24.2°C 91% 1.0 mph E1.6 kmh E 2.0 mph3.2 kmh 29.90 in1012.5 mb 0.00 in0.0 mm 0.00 in0.0 mm 0.00 in0.0 mm
03:19 AM 78.5°F25.8°C 75.6°F24.2°C 91% 1.0 mph E1.6 kmh E 2.0 mph3.2 kmh 29.90 in1012.5 mb 0.00 in0.0 mm 0.00 in0.0 mm 0.00 in0.0 mm
03:24 AM 78.5°F25.8°C 75.6°F24.2°C 91% 1.2 mph ENE1.9 kmh ENE 2.0 mph3.2 kmh 29.90 in1012.5 mb 0.00 in0.0 mm 0.00 in0.0 mm 0.00 in0.0 mm
03:29 AM 78.5°F25.8°C 75.7°F24.3°C 91% 1.0 mph E1.6 kmh E 2.0 mph3.2 kmh 29.90 in1012.5 mb 0.00 in0.0 mm 0.00 in0.0 mm 0.00 in0.0 mm
03:34 AM 78.3°F25.7°C 75.8°F24.3°C 92% 1.0 mph E1.6 kmh E 2.0 mph3.2 kmh 29.90 in1012.5 mb 0.00 in0.0 mm 0.00 in0.0 mm 0.00 in0.0 mm
03:39 AM 78.2°F25.7°C 75.7°F24.3°C 92% 1.2 mph E1.9 kmh E 3.0 mph4.8 kmh 29.90 in1012.5 mb 0.00 in0.0 mm 0.00 in0.0 mm 0.00 in0.0 mm
03:44 AM 78.1°F25.6°C 75.6°F24.2°C 92% 1.6 mph ENE2.6 kmh ENE 3.0 mph4.8 kmh 29.91 in1012.9 mb 0.00 in0.0 mm 0.00 in0.0 mm 0.00 in0.0 mm
03:49 AM 78.0°F25.6°C 75.5°F24.2°C 92% 1.6 mph E2.6 kmh E 3.0 mph4.8 kmh 29.91 in1012.9 mb 0.00 in0.0 mm 0.00 in0.0 mm 0.00 in0.0 mm
03:54 AM 77.9°F25.5°C 75.4°F24.1°C 92% 1.1 mph ENE1.8 kmh ENE 2.0 mph3.2 kmh 29.91 in1012.9 mb 0.00 in0.0 mm 0.00 in0.0 mm 0.00 in0.0 mm
03:59 AM 77.7°F25.4°C 75.5°F24.2°C 93% 1.6 mph NE2.6 kmh NE 2.0 mph3.2 kmh 29.90 in1012.5 mb 0.00 in0.0 mm 0.00 in0.0 mm 0.00 in0.0 mm
04:04 AM 77.5°F25.3°C 75.3°F24.1°C 93% 1.1 mph NE1.8 kmh NE 3.0 mph4.8 kmh 29.90 in1012.5 mb 0.00 in0.0 mm 0.00 in0.0 mm 0.00 in0.0 mm
04:09 AM 77.4°F25.2°C 75.2°F24.0°C 93% Calm Calm 3.0 mph4.8 kmh 29.90 in1012.5 mb 0.00 in0.0 mm 0.00 in0.0 mm 0.00 in0.0 mm
04:14 AM 77.3°F25.2°C 75.1°F23.9°C 93% 1.0 mph ENE1.6 kmh ENE 3.0 mph4.8 kmh 29.90 in1012.5 mb 0.00 in0.0 mm 0.00 in0.0 mm 0.00 in0.0 mm
04:19 AM 77.3°F25.2°C 75.1°F23.9°C 93% 1.9 mph ENE3.1 kmh ENE 3.0 mph4.8 kmh 29.91 in1012.9 mb 0.00 in0.0 mm 0.00 in0.0 mm 0.00 in0.0 mm
04:24 AM 77.2°F25.1°C 75.0°F23.9°C 93% 1.0 mph N1.6 kmh N 3.0 mph4.8 kmh 29.91 in1012.9 mb 0.00 in0.0 mm 0.00 in0.0 mm 0.00 in0.0 mm
04:29 AM 77.2°F25.1°C 75.0°F23.9°C 93% 1.7 mph NE2.7 kmh NE 3.0 mph4.8 kmh 29.91 in1012.9 mb 0.00 in0.0 mm 0.00 in0.0 mm 0.00 in0.0 mm
04:34 AM 77.2°F25.1°C 75.0°F23.9°C 93% 1.3 mph ENE2.1 kmh ENE 3.0 mph4.8 kmh 29.91 in1012.9 mb 0.00 in0.0 mm 0.00 in0.0 mm 0.00 in0.0 mm
04:39 AM 77.2°F25.1°C 75.0°F23.9°C 93% 1.3 mph NE2.1 kmh NE 2.0 mph3.2 kmh 29.91 in1012.9 mb 0.00 in0.0 mm 0.00 in0.0 mm 0.00 in0.0 mm
04:44 AM 77.1°F25.1°C 74.9°F23.8°C 93% Calm Calm 2.0 mph3.2 kmh 29.91 in1012.9 mb 0.00 in0.0 mm 0.00 in0.0 mm 0.00 in0.0 mm
04:49 AM 76.9°F24.9°C 74.7°F23.7°C 93% Calm Calm 2.0 mph3.2 kmh 29.91 in1012.9 mb 0.00 in0.0 mm 0.00 in0.0 mm 0.00 in0.0 mm
04:54 AM 76.6°F24.8°C 74.4°F23.6°C 93% Calm Calm 2.0 mph3.2 kmh 29.92 in1013.2 mb 0.00 in0.0 mm 0.00 in0.0 mm 0.00 in0.0 mm
04:59 AM 76.4°F24.7°C 74.2°F23.4°C 93% 1.2 mph NE1.9 kmh NE 2.0 mph3.2 kmh 29.92 in1013.2 mb 0.00 in0.0 mm 0.00 in0.0 mm 0.00 in0.0 mm
05:04 AM 76.3°F24.6°C 74.4°F23.6°C 94% Calm Calm 3.0 mph4.8 kmh 29.92 in1013.2 mb 0.00 in0.0 mm 0.00 in0.0 mm 0.00 in0.0 mm
05:09 AM 76.3°F24.6°C 74.4°F23.6°C 94% 1.1 mph NE1.8 kmh NE 3.0 mph4.8 kmh 29.92 in1013.2 mb 0.00 in0.0 mm 0.00 in0.0 mm 0.00 in0.0 mm
05:14 AM 76.2°F24.6°C 74.3°F23.5°C 94% 1.5 mph NE2.4 kmh NE 4.0 mph6.4 kmh 29.92 in1013.2 mb 0.00 in0.0 mm 0.00 in0.0 mm 0.00 in0.0 mm
05:19 AM 76.2°F24.6°C 74.3°F23.5°C 94% 1.0 mph NE1.6 kmh NE 4.0 mph6.4 kmh 29.92 in1013.2 mb 0.00 in0.0 mm 0.00 in0.0 mm 0.00 in0.0 mm
05:24 AM 76.1°F24.5°C 74.5°F23.6°C 95% 1.0 mph NE1.6 kmh NE 4.0 mph6.4 kmh 29.93 in1013.5 mb 0.00 in0.0 mm 0.00 in0.0 mm 0.00 in0.0 mm
05:29 AM 76.1°F24.5°C 74.5°F23.6°C 95% Calm Calm 4.0 mph6.4 kmh 29.93 in1013.5 mb 0.00 in0.0 mm 0.00 in0.0 mm 0.00 in0.0 mm
05:34 AM 76.1°F24.5°C 74.5°F23.6°C 95% Calm Calm 1.0 mph1.6 kmh 29.93 in1013.5 mb 0.00 in0.0 mm 0.00 in0.0 mm 0.00 in0.0 mm
05:39 AM 75.9°F24.4°C 74.3°F23.5°C 95% Calm Calm 1.0 mph1.6 kmh 29.94 in1013.9 mb 0.00 in0.0 mm 0.00 in0.0 mm 0.00 in0.0 mm
05:44 AM 75.9°F24.4°C 74.3°F23.5°C 95% Calm Calm -- 29.94 in1013.9 mb 0.00 in0.0 mm 0.00 in0.0 mm 0.00 in0.0 mm
05:49 AM 75.9°F24.4°C 74.3°F23.5°C 95% Calm Calm -- 29.93 in1013.5 mb 0.00 in0.0 mm 0.00 in0.0 mm 0.00 in0.0 mm
05:53 AM 75.8°F24.3°C 74.2°F23.4°C 95% Calm Calm -- 29.94 in1013.9 mb 0.00 in0.0 mm 0.00 in0.0 mm 0.00 in0.0 mm
05:58 AM 75.8°F24.3°C 74.2°F23.4°C 95% 1.0 mph NE1.6 kmh NE 1.0 mph1.6 kmh 29.94 in1013.9 mb 0.00 in0.0 mm 0.00 in0.0 mm 0.00 in0.0 mm
06:03 AM 75.7°F24.3°C 74.1°F23.4°C 95% 1.0 mph NE1.6 kmh NE 1.0 mph1.6 kmh 29.94 in1013.9 mb 0.00 in0.0 mm 0.00 in0.0 mm 0.00 in0.0 mm
06:08 AM 75.7°F24.3°C 74.2°F23.4°C 95% Calm Calm 1.0 mph1.6 kmh 29.94 in1013.9 mb 0.00 in0.0 mm 0.00 in0.0 mm 0.00 in0.0 mm
06:13 AM 75.8°F24.3°C 74.2°F23.4°C 95% Calm Calm 1.0 mph1.6 kmh 29.94 in1013.9 mb 0.00 in0.0 mm 0.00 in0.0 mm 0.00 in0.0 mm
06:18 AM 75.8°F24.3°C 74.2°F23.4°C 95% Calm Calm 1.0 mph1.6 kmh 29.94 in1013.9 mb 0.00 in0.0 mm 0.00 in0.0 mm 0.00 in0.0 mm
06:23 AM 75.9°F24.4°C 74.3°F23.5°C 95% 1.2 mph ENE1.9 kmh ENE 2.0 mph3.2 kmh 29.94 in1013.9 mb 0.00 in0.0 mm 0.00 in0.0 mm 0.00 in0.0 mm
06:28 AM 76.0°F24.4°C 74.4°F23.6°C 95% Calm Calm 2.0 mph3.2 kmh 29.95 in1014.2 mb 0.00 in0.0 mm 0.00 in0.0 mm 0.00 in0.0 mm
06:33 AM 76.2°F24.6°C 74.6°F23.7°C 95% Calm Calm 2.0 mph3.2 kmh 29.95 in1014.2 mb 0.00 in0.0 mm 0.00 in0.0 mm 0.00 in0.0 mm
06:38 AM 76.5°F24.7°C 74.9°F23.8°C 95% Calm Calm 2.0 mph3.2 kmh 29.95 in1014.2 mb 0.00 in0.0 mm 0.00 in0.0 mm 0.00 in0.0 mm
06:43 AM 76.8°F24.9°C 74.9°F23.8°C 94% Calm Calm 1.0 mph1.6 kmh 29.95 in1014.2 mb 0.00 in0.0 mm 0.00 in0.0 mm 0.00 in0.0 mm
06:48 AM 76.9°F24.9°C 75.0°F23.9°C 94% Calm Calm 1.0 mph1.6 kmh 29.95 in1014.2 mb 0.00 in0.0 mm 0.00 in0.0 mm 0.00 in0.0 mm
06:53 AM 77.2°F25.1°C 75.0°F23.9°C 93% Calm Calm 1.0 mph1.6 kmh 29.95 in1014.2 mb 0.00 in0.0 mm 0.00 in0.0 mm 0.00 in0.0 mm
06:58 AM 77.2°F25.1°C 75.0°F23.9°C 93% 1.3 mph E2.1 kmh E 2.0 mph3.2 kmh 29.95 in1014.2 mb 0.00 in0.0 mm 0.00 in0.0 mm 0.00 in0.0 mm
07:03 AM 77.4°F25.2°C 75.2°F24.0°C 93% Calm Calm 2.0 mph3.2 kmh 29.95 in1014.2 mb 0.00 in0.0 mm 0.00 in0.0 mm 0.00 in0.0 mm
07:08 AM 77.5°F25.3°C 75.0°F23.9°C 92% 1.6 mph ENE2.6 kmh ENE 2.0 mph3.2 kmh 29.96 in1014.6 mb 0.00 in0.0 mm 0.00 in0.0 mm 0.00 in0.0 mm
07:13 AM 77.5°F25.3°C 75.0°F23.9°C 92% 1.1 mph NE1.8 kmh NE 2.0 mph3.2 kmh 29.95 in1014.2 mb 0.00 in0.0 mm 0.00 in0.0 mm 0.00 in0.0 mm
07:18 AM 77.7°F25.4°C 75.2°F24.0°C 92% 1.3 mph NE2.1 kmh NE 2.0 mph3.2 kmh 29.96 in1014.6 mb 0.00 in0.0 mm 0.00 in0.0 mm 0.00 in0.0 mm
07:23 AM 78.2°F25.7°C 75.7°F24.3°C 92% Calm Calm 2.0 mph3.2 kmh 29.96 in1014.6 mb 0.00 in0.0 mm 0.00 in0.0 mm 0.00 in0.0 mm
07:28 AM 78.5°F25.8°C 75.6°F24.2°C 91% 1.4 mph NE2.3 kmh NE 2.0 mph3.2 kmh 29.96 in1014.6 mb 0.00 in0.0 mm 0.00 in0.0 mm 0.00 in0.0 mm
07:33 AM 78.7°F25.9°C 75.5°F24.2°C 90% 1.1 mph NNE1.8 kmh NNE 2.0 mph3.2 kmh 29.96 in1014.6 mb 0.00 in0.0 mm 0.00 in0.0 mm 0.00 in0.0 mm
07:38 AM 78.7°F25.9°C 75.5°F24.2°C 90% 1.0 mph NNE1.6 kmh NNE 2.0 mph3.2 kmh 29.96 in1014.6 mb 0.00 in0.0 mm 0.00 in0.0 mm 0.00 in0.0 mm
07:43 AM 78.9°F26.1°C 75.7°F24.3°C 90% 1.4 mph NNE2.3 kmh NNE 2.0 mph3.2 kmh 29.96 in1014.6 mb 0.00 in0.0 mm 0.00 in0.0 mm 0.00 in0.0 mm
07:48 AM 79.4°F26.3°C 76.2°F24.6°C 90% 1.0 mph N1.6 kmh N 2.0 mph3.2 kmh 29.96 in1014.6 mb 0.00 in0.0 mm 0.00 in0.0 mm 0.00 in0.0 mm
07:53 AM 79.8°F26.6°C 76.3°F24.6°C 89% 1.0 mph NE1.6 kmh NE 2.0 mph3.2 kmh 29.96 in1014.6 mb 0.00 in0.0 mm 0.00 in0.0 mm 0.00 in0.0 mm
07:58 AM 80.2°F26.8°C 76.7°F24.8°C 89% Calm Calm 3.0 mph4.8 kmh 29.96 in1014.6 mb 0.00 in0.0 mm 0.00 in0.0 mm 0.00 in0.0 mm
08:03 AM 80.8°F27.1°C 76.9°F24.9°C 88% Calm Calm 3.0 mph4.8 kmh 29.96 in1014.6 mb 0.00 in0.0 mm 0.00 in0.0 mm 0.00 in0.0 mm
08:08 AM 81.4°F27.4°C 77.2°F25.1°C 87% 1.3 mph NE2.1 kmh NE 3.0 mph4.8 kmh 29.97 in1014.9 mb 0.00 in0.0 mm 0.00 in0.0 mm 0.00 in0.0 mm
08:13 AM 81.7°F27.6°C 77.5°F25.3°C 87% Calm Calm 2.0 mph3.2 kmh 29.96 in1014.6 mb 0.00 in0.0 mm 0.00 in0.0 mm 0.00 in0.0 mm
08:18 AM 82.2°F27.9°C 77.6°F25.3°C 86% 1.0 mph ENE1.6 kmh ENE 2.0 mph3.2 kmh 29.96 in1014.6 mb 0.00 in0.0 mm 0.00 in0.0 mm 0.00 in0.0 mm
08:23 AM 82.5°F28.1°C 77.6°F25.3°C 85% 1.0 mph ESE1.6 kmh ESE 2.0 mph3.2 kmh 29.96 in1014.6 mb 0.00 in0.0 mm 0.00 in0.0 mm 0.00 in0.0 mm
08:28 AM 82.6°F28.1°C 77.7°F25.4°C 85% 1.3 mph E2.1 kmh E 2.0 mph3.2 kmh 29.96 in1014.6 mb 0.00 in0.0 mm 0.00 in0.0 mm 0.00 in0.0 mm
08:33 AM 83.2°F28.4°C 77.9°F25.5°C 84% 1.0 mph E1.6 kmh E 2.0 mph3.2 kmh 29.96 in1014.6 mb 0.00 in0.0 mm 0.00 in0.0 mm 0.00 in0.0 mm
08:38 AM 83.1°F28.4°C 77.5°F25.3°C 83% 2.0 mph ENE3.2 kmh ENE 3.0 mph4.8 kmh 29.96 in1014.6 mb 0.00 in0.0 mm 0.00 in0.0 mm 0.00 in0.0 mm
08:43 AM 83.2°F28.4°C 77.9°F25.5°C 84% 1.4 mph E2.3 kmh E 3.0 mph4.8 kmh 29.97 in1014.9 mb 0.00 in0.0 mm 0.00 in0.0 mm 0.00 in0.0 mm
08:48 AM 83.5°F28.6°C 77.9°F25.5°C 83% 1.0 mph N1.6 kmh N 3.0 mph4.8 kmh 29.97 in1014.9 mb 0.00 in0.0 mm 0.00 in0.0 mm 0.00 in0.0 mm
08:53 AM 83.9°F28.8°C 77.9°F25.5°C 82% 1.1 mph NNE1.8 kmh NNE 3.0 mph4.8 kmh 29.97 in1014.9 mb 0.00 in0.0 mm 0.00 in0.0 mm 0.00 in0.0 mm
08:59 AM 84.6°F29.2°C 78.6°F25.9°C 82% Calm Calm 3.0 mph4.8 kmh 29.97 in1014.9 mb 0.00 in0.0 mm 0.00 in0.0 mm 0.00 in0.0 mm
09:03 AM 85.5°F29.7°C 78.6°F25.9°C 80% Calm Calm 3.0 mph4.8 kmh 29.97 in1014.9 mb 0.00 in0.0 mm 0.00 in0.0 mm 0.00 in0.0 mm
09:08 AM 86.4°F30.2°C 78.9°F26.1°C 78% 1.4 mph N2.3 kmh N 2.0 mph3.2 kmh 29.96 in1014.6 mb 0.00 in0.0 mm 0.00 in0.0 mm 0.00 in0.0 mm
09:14 AM 86.4°F30.2°C 78.5°F25.8°C 77% 1.4 mph NE2.3 kmh NE 2.0 mph3.2 kmh 29.97 in1014.9 mb 0.00 in0.0 mm 0.00 in0.0 mm 0.00 in0.0 mm
09:19 AM 86.4°F30.2°C 78.3°F25.7°C 77% 1.3 mph SSE2.1 kmh SSE 2.0 mph3.2 kmh 29.96 in1014.6 mb 0.00 in0.0 mm 0.00 in0.0 mm 0.00 in0.0 mm
09:24 AM 86.7°F30.4°C 79.2°F26.2°C 78% 1.2 mph NE1.9 kmh NE 3.0 mph4.8 kmh 29.96 in1014.6 mb 0.00 in0.0 mm 0.00 in0.0 mm 0.00 in0.0 mm
09:28 AM 86.6°F30.3°C 78.7°F25.9°C 77% 1.0 mph ESE1.6 kmh ESE 4.0 mph6.4 kmh 29.96 in1014.6 mb 0.00 in0.0 mm 0.00 in0.0 mm 0.00 in0.0 mm
09:34 AM 87.1°F30.6°C 78.4°F25.8°C 75% 1.8 mph SE2.9 kmh SE 4.0 mph6.4 kmh 29.96 in1014.6 mb 0.00 in0.0 mm 0.00 in0.0 mm 0.00 in0.0 mm
09:39 AM 87.2°F30.7°C 78.5°F25.8°C 75% 1.9 mph NE3.1 kmh NE 4.0 mph6.4 kmh 29.96 in1014.6 mb 0.00 in0.0 mm 0.00 in0.0 mm 0.00 in0.0 mm
09:44 AM 86.9°F30.5°C 77.8°F25.4°C 74% 2.4 mph SE3.9 kmh SE 5.0 mph8.0 kmh 29.97 in1014.9 mb 0.00 in0.0 mm 0.00 in0.0 mm 0.00 in0.0 mm
09:48 AM 87.0°F30.6°C 78.5°F25.8°C 76% 1.6 mph ENE2.6 kmh ENE 5.0 mph8.0 kmh 29.97 in1014.9 mb 0.00 in0.0 mm 0.00 in0.0 mm 0.00 in0.0 mm
09:54 AM 86.5°F30.3°C 78.2°F25.7°C 76% 1.0 mph E1.6 kmh E 6.0 mph9.7 kmh 29.97 in1014.9 mb 0.00 in0.0 mm 0.00 in0.0 mm 0.00 in0.0 mm
09:59 AM 86.6°F30.3°C 77.9°F25.5°C 75% 2.5 mph E4.0 kmh E 6.0 mph9.7 kmh 29.97 in1014.9 mb 0.00 in0.0 mm 0.00 in0.0 mm 0.00 in0.0 mm
10:04 AM 86.7°F30.4°C 78.0°F25.6°C 75% 4.0 mph NE6.4 kmh NE 7.0 mph11.3 kmh 29.97 in1014.9 mb 0.00 in0.0 mm 0.00 in0.0 mm 0.00 in0.0 mm
10:09 AM 86.7°F30.4°C 78.4°F25.8°C 76% 2.8 mph E4.5 kmh E 7.0 mph11.3 kmh 29.97 in1014.9 mb 0.00 in0.0 mm 0.00 in0.0 mm 0.00 in0.0 mm
10:14 AM 87.0°F30.6°C 78.3°F25.7°C 75% 2.9 mph ESE4.7 kmh ESE 7.0 mph11.3 kmh 29.97 in1014.9 mb 0.00 in0.0 mm 0.00 in0.0 mm 0.00 in0.0 mm
10:19 AM 87.4°F30.8°C 77.7°F25.4°C 73% 2.7 mph E4.3 kmh E 7.0 mph11.3 kmh 29.97 in1014.9 mb 0.00 in0.0 mm 0.00 in0.0 mm 0.00 in0.0 mm
10:24 AM 87.9°F31.1°C 78.6°F25.9°C 74% 3.3 mph ENE5.3 kmh ENE 8.0 mph12.9 kmh 29.97 in1014.9 mb 0.00 in0.0 mm 0.00 in0.0 mm 0.00 in0.0 mm
10:29 AM 87.4°F30.8°C 77.7°F25.4°C 73% 2.7 mph E4.3 kmh E 8.0 mph12.9 kmh 29.97 in1014.9 mb 0.00 in0.0 mm 0.00 in0.0 mm 0.00 in0.0 mm
10:34 AM 87.0°F30.6°C 77.5°F25.3°C 73% 3.5 mph NE5.6 kmh NE 8.0 mph12.9 kmh 29.97 in1014.9 mb 0.00 in0.0 mm 0.00 in0.0 mm 0.00 in0.0 mm
10:39 AM 87.4°F30.8°C 77.9°F25.5°C 73% 3.1 mph NE5.0 kmh NE 8.0 mph12.9 kmh 29.97 in1014.9 mb 0.00 in0.0 mm 0.00 in0.0 mm 0.00 in0.0 mm
10:44 AM 87.9°F31.1°C 78.0°F25.6°C 72% 3.5 mph E5.6 kmh E 8.0 mph12.9 kmh 29.97 in1014.9 mb 0.00 in0.0 mm 0.00 in0.0 mm 0.00 in0.0 mm
10:49 AM 88.3°F31.3°C 78.0°F25.6°C 71% 2.6 mph E4.2 kmh E 8.0 mph12.9 kmh 29.97 in1014.9 mb 0.00 in0.0 mm 0.00 in0.0 mm 0.00 in0.0 mm
10:54 AM 88.2°F31.2°C 77.9°F25.5°C 71% 2.5 mph NE4.0 kmh NE 7.0 mph11.3 kmh 29.97 in1014.9 mb 0.00 in0.0 mm 0.00 in0.0 mm 0.00 in0.0 mm
10:59 AM 88.5°F31.4°C 77.9°F25.5°C 71% 3.0 mph E4.8 kmh E 7.0 mph11.3 kmh 29.97 in1014.9 mb 0.00 in0.0 mm 0.00 in0.0 mm 0.00 in0.0 mm
11:04 AM 89.0°F31.7°C 78.2°F25.7°C 70% 2.1 mph SE3.4 kmh SE 7.0 mph11.3 kmh 29.97 in1014.9 mb 0.00 in0.0 mm 0.00 in0.0 mm 0.00 in0.0 mm
11:09 AM 89.6°F32.0°C 78.4°F25.8°C 69% 1.4 mph NE2.3 kmh NE 7.0 mph11.3 kmh 29.96 in1014.6 mb 0.00 in0.0 mm 0.00 in0.0 mm 0.00 in0.0 mm
11:14 AM 89.6°F32.0°C 77.5°F25.3°C 67% 1.4 mph SE2.3 kmh SE 5.0 mph8.0 kmh 29.96 in1014.6 mb 0.00 in0.0 mm 0.00 in0.0 mm 0.00 in0.0 mm
11:19 AM 89.9°F32.2°C 77.8°F25.4°C 67% 2.6 mph ESE4.2 kmh ESE 5.0 mph8.0 kmh 29.96 in1014.6 mb 0.00 in0.0 mm 0.00 in0.0 mm 0.00 in0.0 mm
11:24 AM 90.1°F32.3°C 78.0°F25.6°C 67% 3.6 mph E5.8 kmh E 9.0 mph14.5 kmh 29.96 in1014.6 mb 0.00 in0.0 mm 0.00 in0.0 mm 0.00 in0.0 mm
11:29 AM 89.2°F31.8°C 77.1°F25.1°C 67% 2.4 mph ESE3.9 kmh ESE 9.0 mph14.5 kmh 29.96 in1014.6 mb 0.00 in0.0 mm 0.00 in0.0 mm 0.00 in0.0 mm
11:34 AM 89.1°F31.7°C 77.4°F25.2°C 68% 1.1 mph ENE1.8 kmh ENE 9.0 mph14.5 kmh 29.96 in1014.6 mb 0.00 in0.0 mm 0.00 in0.0 mm 0.00 in0.0 mm
11:39 AM 89.1°F31.7°C 77.4°F25.2°C 68% 2.9 mph E4.7 kmh E 9.0 mph14.5 kmh 29.96 in1014.6 mb 0.00 in0.0 mm 0.00 in0.0 mm 0.00 in0.0 mm
11:44 AM 89.5°F31.9°C 78.0°F25.6°C 69% 2.5 mph ESE4.0 kmh ESE 5.0 mph8.0 kmh 29.95 in1014.2 mb 0.00 in0.0 mm 0.00 in0.0 mm 0.00 in0.0 mm
11:49 AM 90.0°F32.2°C 77.1°F25.1°C 66% 3.2 mph E5.1 kmh E 8.0 mph12.9 kmh 29.95 in1014.2 mb 0.00 in0.0 mm 0.00 in0.0 mm 0.00 in0.0 mm
11:52 AM 89.5°F31.9°C 76.6°F24.8°C 66% 4.6 mph ENE7.4 kmh ENE 9.0 mph14.5 kmh 29.95 in1014.2 mb 0.00 in0.0 mm 0.00 in0.0 mm 0.00 in0.0 mm
11:58 AM 89.3°F31.8°C 77.2°F25.1°C 67% 1.0 mph ESE1.6 kmh ESE 9.0 mph14.5 kmh 29.95 in1014.2 mb 0.00 in0.0 mm 0.00 in0.0 mm 0.00 in0.0 mm
12:02 PM 89.6°F32.0°C 77.9°F25.5°C 68% 2.4 mph NE3.9 kmh NE 9.0 mph14.5 kmh 29.95 in1014.2 mb 0.00 in0.0 mm 0.00 in0.0 mm 0.00 in0.0 mm
12:08 PM 90.1°F32.3°C 77.5°F25.3°C 66% 2.4 mph NE3.9 kmh NE 9.0 mph14.5 kmh 29.95 in1014.2 mb 0.00 in0.0 mm 0.00 in0.0 mm 0.00 in0.0 mm
12:12 PM 89.9°F32.2°C 77.3°F25.2°C 66% 1.6 mph NE2.6 kmh NE 6.0 mph9.7 kmh 29.95 in1014.2 mb 0.00 in0.0 mm 0.00 in0.0 mm 0.00 in0.0 mm
12:18 PM 89.8°F32.1°C 78.1°F25.6°C 68% Calm Calm 6.0 mph9.7 kmh 29.95 in1014.2 mb 0.00 in0.0 mm 0.00 in0.0 mm 0.00 in0.0 mm
12:23 PM 90.0°F32.2°C 77.4°F25.2°C 66% Calm Calm 4.0 mph6.4 kmh 29.95 in1014.2 mb 0.00 in0.0 mm 0.00 in0.0 mm 0.00 in0.0 mm
12:28 PM 90.2°F32.3°C 77.6°F25.3°C 66% 2.8 mph ENE4.5 kmh ENE 4.0 mph6.4 kmh 29.95 in1014.2 mb 0.00 in0.0 mm 0.00 in0.0 mm 0.00 in0.0 mm
12:33 PM 89.7°F32.1°C 77.1°F25.1°C 66% 1.1 mph E1.8 kmh E 4.0 mph6.4 kmh 29.95 in1014.2 mb 0.00 in0.0 mm 0.00 in0.0 mm 0.00 in0.0 mm
12:38 PM 89.6°F32.0°C 77.5°F25.3°C 67% 2.5 mph NE4.0 kmh NE 4.0 mph6.4 kmh 29.95 in1014.2 mb 0.00 in0.0 mm 0.00 in0.0 mm 0.00 in0.0 mm
12:43 PM 89.4°F31.9°C 76.8°F24.9°C 66% 7.1 mph NE11.4 kmh NE 10.0 mph16.1 kmh 29.95 in1014.2 mb 0.00 in0.0 mm 0.00 in0.0 mm 0.00 in0.0 mm
12:47 PM 89.2°F31.8°C 77.1°F25.1°C 67% 2.0 mph ENE3.2 kmh ENE 10.0 mph16.1 kmh 29.94 in1013.9 mb 0.00 in0.0 mm 0.00 in0.0 mm 0.00 in0.0 mm
12:53 PM 89.1°F31.7°C 77.0°F25.0°C 67% 3.1 mph E5.0 kmh E 10.0 mph16.1 kmh 29.95 in1014.2 mb 0.00 in0.0 mm 0.00 in0.0 mm 0.00 in0.0 mm
12:58 PM 89.0°F31.7°C 76.9°F24.9°C 67% 2.5 mph E4.0 kmh E 10.0 mph16.1 kmh 29.95 in1014.2 mb 0.00 in0.0 mm 0.00 in0.0 mm 0.00 in0.0 mm
01:03 PM 89.1°F31.7°C 77.0°F25.0°C 67% 2.9 mph E4.7 kmh E 7.0 mph11.3 kmh 29.94 in1013.9 mb 0.00 in0.0 mm 0.00 in0.0 mm 0.00 in0.0 mm
01:08 PM 89.3°F31.8°C 77.2°F25.1°C 67% 2.4 mph NE3.9 kmh NE 7.0 mph11.3 kmh 29.94 in1013.9 mb 0.00 in0.0 mm 0.00 in0.0 mm 0.00 in0.0 mm
01:13 PM 89.8°F32.1°C 77.7°F25.4°C 67% 2.8 mph ESE4.5 kmh ESE 7.0 mph11.3 kmh 29.94 in1013.9 mb 0.00 in0.0 mm 0.00 in0.0 mm 0.00 in0.0 mm
01:18 PM 90.2°F32.3°C 76.8°F24.9°C 65% 3.7 mph E6.0 kmh E 7.0 mph11.3 kmh 29.94 in1013.9 mb 0.00 in0.0 mm 0.00 in0.0 mm 0.00 in0.0 mm
01:23 PM 90.1°F32.3°C 76.3°F24.6°C 64% 3.4 mph ENE5.5 kmh ENE 8.0 mph12.9 kmh 29.94 in1013.9 mb 0.00 in0.0 mm 0.00 in0.0 mm 0.00 in0.0 mm
01:28 PM 89.7°F32.1°C 75.9°F24.4°C 64% 6.4 mph SE10.3 kmh SE 11.0 mph17.7 kmh 29.94 in1013.9 mb 0.00 in0.0 mm 0.00 in0.0 mm 0.00 in0.0 mm
01:33 PM 89.0°F31.7°C 76.2°F24.6°C 66% 4.5 mph SE7.2 kmh SE 12.0 mph19.3 kmh 29.94 in1013.9 mb 0.00 in0.0 mm 0.00 in0.0 mm 0.00 in0.0 mm
01:38 PM 89.0°F31.7°C 76.5°F24.7°C 66% 4.2 mph SE6.8 kmh SE 12.0 mph19.3 kmh 29.94 in1013.9 mb 0.00 in0.0 mm 0.00 in0.0 mm 0.00 in0.0 mm
01:43 PM 89.8°F32.1°C 76.0°F24.4°C 64% 3.1 mph ESE5.0 kmh ESE 12.0 mph19.3 kmh 29.94 in1013.9 mb 0.00 in0.0 mm 0.00 in0.0 mm 0.00 in0.0 mm
01:48 PM 90.4°F32.4°C 75.9°F24.4°C 62% 4.2 mph SE6.8 kmh SE 10.0 mph16.1 kmh 29.94 in1013.9 mb 0.00 in0.0 mm 0.00 in0.0 mm 0.00 in0.0 mm
01:53 PM 90.6°F32.6°C 75.6°F24.2°C 61% 4.1 mph ESE6.6 kmh ESE 9.0 mph14.5 kmh 29.93 in1013.5 mb 0.00 in0.0 mm 0.00 in0.0 mm 0.00 in0.0 mm
01:58 PM 91.1°F32.8°C 76.6°F24.8°C 62% 2.1 mph SE3.4 kmh SE 9.0 mph14.5 kmh 29.93 in1013.5 mb 0.00 in0.0 mm 0.00 in0.0 mm 0.00 in0.0 mm
02:03 PM 91.5°F33.1°C 76.5°F24.7°C 61% 3.1 mph ESE5.0 kmh ESE 9.0 mph14.5 kmh 29.93 in1013.5 mb 0.00 in0.0 mm 0.00 in0.0 mm 0.00 in0.0 mm
02:08 PM 91.7°F33.2°C 76.7°F24.8°C 61% 2.2 mph SE3.5 kmh SE 9.0 mph14.5 kmh 29.93 in1013.5 mb 0.00 in0.0 mm 0.00 in0.0 mm 0.00 in0.0 mm
02:13 PM 91.1°F32.8°C 75.6°F24.2°C 60% 4.7 mph E7.6 kmh E 10.0 mph16.1 kmh 29.92 in1013.2 mb 0.00 in0.0 mm 0.00 in0.0 mm 0.00 in0.0 mm
02:18 PM 91.4°F33.0°C 76.4°F24.7°C 61% 2.7 mph E4.3 kmh E 10.0 mph16.1 kmh 29.92 in1013.2 mb 0.00 in0.0 mm 0.00 in0.0 mm 0.00 in0.0 mm
02:23 PM 91.0°F32.8°C 76.5°F24.7°C 62% 2.0 mph E3.2 kmh E 10.0 mph16.1 kmh 29.92 in1013.2 mb 0.00 in0.0 mm 0.00 in0.0 mm 0.00 in0.0 mm
02:28 PM 91.4°F33.0°C 76.4°F24.7°C 61% 1.3 mph E2.1 kmh E 10.0 mph16.1 kmh 29.92 in1013.2 mb 0.00 in0.0 mm 0.00 in0.0 mm 0.00 in0.0 mm
02:33 PM 91.9°F33.3°C 75.8°F24.3°C 59% 3.7 mph SE6.0 kmh SE 8.0 mph12.9 kmh 29.92 in1013.2 mb 0.00 in0.0 mm 0.00 in0.0 mm 0.00 in0.0 mm
02:38 PM 91.6°F33.1°C 75.0°F23.9°C 58% 3.7 mph ESE6.0 kmh ESE 7.0 mph11.3 kmh 29.91 in1012.9 mb 0.00 in0.0 mm 0.00 in0.0 mm 0.00 in0.0 mm
02:43 PM 91.8°F33.2°C 75.7°F24.3°C 59% 3.0 mph ESE4.8 kmh ESE 7.0 mph11.3 kmh 29.91 in1012.9 mb 0.00 in0.0 mm 0.00 in0.0 mm 0.00 in0.0 mm
02:48 PM 91.9°F33.3°C 76.3°F24.6°C 60% 2.2 mph E3.5 kmh E 7.0 mph11.3 kmh 29.91 in1012.9 mb 0.00 in0.0 mm 0.00 in0.0 mm 0.00 in0.0 mm
02:53 PM 92.4°F33.6°C 75.8°F24.3°C 58% 3.0 mph ESE4.8 kmh ESE 6.0 mph9.7 kmh 29.91 in1012.9 mb 0.00 in0.0 mm 0.00 in0.0 mm 0.00 in0.0 mm
02:58 PM 92.4°F33.6°C 76.3°F24.6°C 59% 2.4 mph SE3.9 kmh SE 7.0 mph11.3 kmh 29.90 in1012.5 mb 0.00 in0.0 mm 0.00 in0.0 mm 0.00 in0.0 mm
03:03 PM 92.3°F33.5°C 76.2°F24.6°C 59% 2.1 mph ESE3.4 kmh ESE 7.0 mph11.3 kmh 29.90 in1012.5 mb 0.00 in0.0 mm 0.00 in0.0 mm 0.00 in0.0 mm
03:08 PM 92.6°F33.7°C 76.0°F24.4°C 58% 2.8 mph SE4.5 kmh SE 7.0 mph11.3 kmh 29.90 in1012.5 mb 0.00 in0.0 mm 0.00 in0.0 mm 0.00 in0.0 mm
03:13 PM 93.2°F34.0°C 75.7°F24.3°C 57% 1.3 mph S2.1 kmh S 7.0 mph11.3 kmh 29.90 in1012.5 mb 0.00 in0.0 mm 0.00 in0.0 mm 0.00 in0.0 mm
03:18 PM 93.5°F34.2°C 74.4°F23.6°C 54% 1.0 mph E1.6 kmh E 7.0 mph11.3 kmh 29.89 in1012.2 mb 0.00 in0.0 mm 0.00 in0.0 mm 0.00 in0.0 mm
03:23 PM 93.9°F34.4°C 73.2°F22.9°C 51% 1.0 mph S1.6 kmh S 7.0 mph11.3 kmh 29.89 in1012.2 mb 0.00 in0.0 mm 0.00 in0.0 mm 0.00 in0.0 mm
03:28 PM 94.3°F34.6°C 74.8°F23.8°C 53% Calm Calm 4.0 mph6.4 kmh 29.89 in1012.2 mb 0.00 in0.0 mm 0.00 in0.0 mm 0.00 in0.0 mm
03:33 PM 94.6°F34.8°C 74.8°F23.8°C 53% 2.3 mph NE3.7 kmh NE 3.0 mph4.8 kmh 29.89 in1012.2 mb 0.00 in0.0 mm 0.00 in0.0 mm 0.00 in0.0 mm
03:38 PM 94.7°F34.8°C 76.0°F24.4°C 55% 2.5 mph SE4.0 kmh SE 5.0 mph8.0 kmh 29.88 in1011.9 mb 0.00 in0.0 mm 0.00 in0.0 mm 0.00 in0.0 mm
03:43 PM 94.3°F34.6°C 75.4°F24.1°C 54% 1.2 mph E1.9 kmh E 5.0 mph8.0 kmh 29.88 in1011.9 mb 0.00 in0.0 mm 0.00 in0.0 mm 0.00 in0.0 mm
03:48 PM 93.8°F34.3°C 74.9°F23.8°C 54% 2.8 mph ESE4.5 kmh ESE 7.0 mph11.3 kmh 29.88 in1011.9 mb 0.00 in0.0 mm 0.00 in0.0 mm 0.00 in0.0 mm
03:53 PM 93.6°F34.2°C 74.7°F23.7°C 54% 1.9 mph SE3.1 kmh SE 7.0 mph11.3 kmh 29.88 in1011.9 mb 0.00 in0.0 mm 0.00 in0.0 mm 0.00 in0.0 mm
03:58 PM 94.1°F34.5°C 75.2°F24.0°C 54% 3.1 mph SE5.0 kmh SE 7.0 mph11.3 kmh 29.88 in1011.9 mb 0.00 in0.0 mm 0.00 in0.0 mm 0.00 in0.0 mm
04:03 PM 93.8°F34.3°C 74.1°F23.4°C 53% 1.7 mph E2.7 kmh E 7.0 mph11.3 kmh 29.88 in1011.9 mb 0.00 in0.0 mm 0.00 in0.0 mm 0.00 in0.0 mm
04:08 PM 93.6°F34.2°C 75.3°F24.1°C 55% 2.8 mph NE4.5 kmh NE 6.0 mph9.7 kmh 29.88 in1011.9 mb 0.00 in0.0 mm 0.00 in0.0 mm 0.00 in0.0 mm
04:13 PM 93.2°F34.0°C 74.6°F23.7°C 55% 3.8 mph E6.1 kmh E 7.0 mph11.3 kmh 29.88 in1011.9 mb 0.00 in0.0 mm 0.00 in0.0 mm 0.00 in0.0 mm
04:18 PM 93.1°F33.9°C 74.0°F23.3°C 54% 4.0 mph SE6.4 kmh SE 7.0 mph11.3 kmh 29.88 in1011.9 mb 0.00 in0.0 mm 0.00 in0.0 mm 0.00 in0.0 mm
04:23 PM 93.0°F33.9°C 74.4°F23.6°C 55% 1.6 mph SE2.6 kmh SE 7.0 mph11.3 kmh 29.88 in1011.9 mb 0.00 in0.0 mm 0.00 in0.0 mm 0.00 in0.0 mm
04:28 PM 93.3°F34.1°C 76.1°F24.5°C 57% Calm Calm 7.0 mph11.3 kmh 29.88 in1011.9 mb 0.00 in0.0 mm 0.00 in0.0 mm 0.00 in0.0 mm
04:33 PM 93.7°F34.3°C 75.4°F24.1°C 55% 1.0 mph SSW1.6 kmh SSW 6.0 mph9.7 kmh 29.87 in1011.5 mb 0.00 in0.0 mm 0.00 in0.0 mm 0.00 in0.0 mm
04:38 PM 94.0°F34.4°C 75.7°F24.3°C 55% 2.2 mph ENE3.5 kmh ENE 5.0 mph8.0 kmh 29.87 in1011.5 mb 0.00 in0.0 mm 0.00 in0.0 mm 0.00 in0.0 mm
04:43 PM 93.8°F34.3°C 76.0°F24.4°C 56% 2.7 mph NE4.3 kmh NE 5.0 mph8.0 kmh 29.87 in1011.5 mb 0.00 in0.0 mm 0.00 in0.0 mm 0.00 in0.0 mm
04:48 PM 93.5°F34.2°C 74.4°F23.6°C 54% 2.4 mph NE3.9 kmh NE 5.0 mph8.0 kmh 29.87 in1011.5 mb 0.00 in0.0 mm 0.00 in0.0 mm 0.00 in0.0 mm
04:53 PM 93.3°F34.1°C 74.4°F23.6°C 54% 3.8 mph ESE6.1 kmh ESE 7.0 mph11.3 kmh 29.87 in1011.5 mb 0.00 in0.0 mm 0.00 in0.0 mm 0.00 in0.0 mm
04:58 PM 93.1°F33.9°C 74.8°F23.8°C 55% 1.5 mph E2.4 kmh E 7.0 mph11.3 kmh 29.87 in1011.5 mb 0.00 in0.0 mm 0.00 in0.0 mm 0.00 in0.0 mm
05:03 PM 93.2°F34.0°C 74.9°F23.8°C 55% 1.0 mph SE1.6 kmh SE 7.0 mph11.3 kmh 29.87 in1011.5 mb 0.00 in0.0 mm 0.00 in0.0 mm 0.00 in0.0 mm
05:08 PM 93.1°F33.9°C 75.9°F24.4°C 57% 1.0 mph SE1.6 kmh SE 7.0 mph11.3 kmh 29.87 in1011.5 mb 0.00 in0.0 mm 0.00 in0.0 mm 0.00 in0.0 mm
05:13 PM 92.9°F33.8°C 75.7°F24.3°C 57% 4.3 mph ESE6.9 kmh ESE 7.0 mph11.3 kmh 29.87 in1011.5 mb 0.00 in0.0 mm 0.00 in0.0 mm 0.00 in0.0 mm
05:18 PM 92.6°F33.7°C 76.0°F24.4°C 58% 2.6 mph ESE4.2 kmh ESE 7.0 mph11.3 kmh 29.87 in1011.5 mb 0.00 in0.0 mm 0.00 in0.0 mm 0.00 in0.0 mm
05:23 PM 92.5°F33.6°C 75.9°F24.4°C 58% 2.2 mph SE3.5 kmh SE 7.0 mph11.3 kmh 29.87 in1011.5 mb 0.00 in0.0 mm 0.00 in0.0 mm 0.00 in0.0 mm
05:28 PM 92.3°F33.5°C 75.7°F24.3°C 58% 1.8 mph SE2.9 kmh SE 7.0 mph11.3 kmh 29.87 in1011.5 mb 0.00 in0.0 mm 0.00 in0.0 mm 0.00 in0.0 mm
05:33 PM 92.2°F33.4°C 75.3°F24.1°C 58% 1.7 mph SE2.7 kmh SE 4.0 mph6.4 kmh 29.87 in1011.5 mb 0.00 in0.0 mm 0.00 in0.0 mm 0.00 in0.0 mm
05:38 PM 92.2°F33.4°C 75.8°F24.3°C 59% 1.0 mph SE1.6 kmh SE 3.0 mph4.8 kmh 29.87 in1011.5 mb 0.00 in0.0 mm 0.00 in0.0 mm 0.00 in0.0 mm
05:43 PM 92.1°F33.4°C 75.2°F24.0°C 58% 1.0 mph SE1.6 kmh SE 3.0 mph4.8 kmh 29.88 in1011.9 mb 0.00 in0.0 mm 0.00 in0.0 mm 0.00 in0.0 mm
05:48 PM 91.9°F33.3°C 75.0°F23.9°C 58% 1.3 mph SE2.1 kmh SE 3.0 mph4.8 kmh 29.88 in1011.9 mb 0.00 in0.0 mm 0.00 in0.0 mm 0.00 in0.0 mm
05:52 PM 91.7°F33.2°C 75.1°F23.9°C 58% 2.6 mph ESE4.2 kmh ESE 4.0 mph6.4 kmh 29.87 in1011.5 mb 0.00 in0.0 mm 0.00 in0.0 mm 0.00 in0.0 mm
05:57 PM 91.6°F33.1°C 75.0°F23.9°C 58% 1.8 mph SE2.9 kmh SE 4.0 mph6.4 kmh 29.88 in1011.9 mb 0.00 in0.0 mm 0.00 in0.0 mm 0.00 in0.0 mm
06:02 PM 91.5°F33.1°C 75.5°F24.2°C 59% 1.2 mph ESE1.9 kmh ESE 4.0 mph6.4 kmh 29.88 in1011.9 mb 0.00 in0.0 mm 0.00 in0.0 mm 0.00 in0.0 mm
06:07 PM 91.5°F33.1°C 75.5°F24.2°C 59% 2.0 mph E3.2 kmh E 4.0 mph6.4 kmh 29.88 in1011.9 mb 0.00 in0.0 mm 0.00 in0.0 mm 0.00 in0.0 mm
06:12 PM 91.4°F33.0°C 75.4°F24.1°C 59% 2.8 mph E4.5 kmh E 6.0 mph9.7 kmh 29.88 in1011.9 mb 0.00 in0.0 mm 0.00 in0.0 mm 0.00 in0.0 mm
06:17 PM 91.2°F32.9°C 74.9°F23.8°C 59% 1.1 mph ESE1.8 kmh ESE 6.0 mph9.7 kmh 29.88 in1011.9 mb 0.00 in0.0 mm 0.00 in0.0 mm 0.00 in0.0 mm
06:22 PM 91.3°F32.9°C 75.3°F24.1°C 59% 1.9 mph ESE3.1 kmh ESE 6.0 mph9.7 kmh 29.88 in1011.9 mb 0.00 in0.0 mm 0.00 in0.0 mm 0.00 in0.0 mm
06:27 PM 91.2°F32.9°C 75.2°F24.0°C 59% 1.5 mph ENE2.4 kmh ENE 6.0 mph9.7 kmh 29.88 in1011.9 mb 0.00 in0.0 mm 0.00 in0.0 mm 0.00 in0.0 mm
06:32 PM 91.1°F32.8°C 75.6°F24.2°C 60% 1.6 mph E2.6 kmh E 5.0 mph8.0 kmh 29.88 in1011.9 mb 0.00 in0.0 mm 0.00 in0.0 mm 0.00 in0.0 mm
06:37 PM 90.9°F32.7°C 75.4°F24.1°C 60% 1.0 mph E1.6 kmh E 4.0 mph6.4 kmh 29.88 in1011.9 mb 0.00 in0.0 mm 0.00 in0.0 mm 0.00 in0.0 mm
06:42 PM 90.8°F32.7°C 75.8°F24.3°C 61% 1.0 mph ESE1.6 kmh ESE 3.0 mph4.8 kmh 29.88 in1011.9 mb 0.00 in0.0 mm 0.00 in0.0 mm 0.00 in0.0 mm
06:47 PM 90.7°F32.6°C 75.7°F24.3°C 61% 2.1 mph E3.4 kmh E 3.0 mph4.8 kmh 29.88 in1011.9 mb 0.00 in0.0 mm 0.00 in0.0 mm 0.00 in0.0 mm
06:52 PM 90.5°F32.5°C 76.0°F24.4°C 62% 1.0 mph SE1.6 kmh SE 3.0 mph4.8 kmh 29.88 in1011.9 mb 0.00 in0.0 mm 0.00 in0.0 mm 0.00 in0.0 mm
06:57 PM 90.4°F32.4°C 75.4°F24.1°C 61% 1.3 mph E2.1 kmh E 3.0 mph4.8 kmh 29.88 in1011.9 mb 0.00 in0.0 mm 0.00 in0.0 mm 0.00 in0.0 mm
07:02 PM 90.3°F32.4°C 75.3°F24.1°C 61% 1.7 mph E2.7 kmh E 3.0 mph4.8 kmh 29.88 in1011.9 mb 0.00 in0.0 mm 0.00 in0.0 mm 0.00 in0.0 mm
07:07 PM 90.2°F32.3°C 75.4°F24.1°C 62% Calm Calm 2.0 mph3.2 kmh 29.88 in1011.9 mb 0.00 in0.0 mm 0.00 in0.0 mm 0.00 in0.0 mm
07:12 PM 90.1°F32.3°C 75.6°F24.2°C 62% 1.2 mph E1.9 kmh E 2.0 mph3.2 kmh 29.88 in1011.9 mb 0.00 in0.0 mm 0.00 in0.0 mm 0.00 in0.0 mm
07:17 PM 89.9°F32.2°C 75.9°F24.4°C 63% 1.0 mph ESE1.6 kmh ESE 3.0 mph4.8 kmh 29.88 in1011.9 mb 0.00 in0.0 mm 0.00 in0.0 mm 0.00 in0.0 mm
07:22 PM 89.7°F32.1°C 75.7°F24.3°C 63% Calm Calm 3.0 mph4.8 kmh 29.88 in1011.9 mb 0.00 in0.0 mm 0.00 in0.0 mm 0.00 in0.0 mm
07:27 PM 89.5°F31.9°C 76.0°F24.4°C 64% Calm Calm 3.0 mph4.8 kmh 29.89 in1012.2 mb 0.00 in0.0 mm 0.00 in0.0 mm 0.00 in0.0 mm
07:32 PM 89.2°F31.8°C 76.2°F24.6°C 65% 1.0 mph E1.6 kmh E 3.0 mph4.8 kmh 29.89 in1012.2 mb 0.00 in0.0 mm 0.00 in0.0 mm 0.00 in0.0 mm
07:37 PM 88.9°F31.6°C 76.1°F24.5°C 66% 1.0 mph ESE1.6 kmh ESE 2.0 mph3.2 kmh 29.88 in1011.9 mb 0.00 in0.0 mm 0.00 in0.0 mm 0.00 in0.0 mm
07:42 PM 88.6°F31.4°C 76.1°F24.5°C 66% Calm Calm 2.0 mph3.2 kmh 29.89 in1012.2 mb 0.00 in0.0 mm 0.00 in0.0 mm 0.00 in0.0 mm
07:47 PM 88.5°F31.4°C 75.5°F24.2°C 65% 1.5 mph ESE2.4 kmh ESE 2.0 mph3.2 kmh 29.88 in1011.9 mb 0.00 in0.0 mm 0.00 in0.0 mm 0.00 in0.0 mm
07:52 PM 88.5°F31.4°C 75.5°F24.2°C 65% 1.5 mph E2.4 kmh E 3.0 mph4.8 kmh 29.88 in1011.9 mb 0.00 in0.0 mm 0.00 in0.0 mm 0.00 in0.0 mm
07:57 PM 88.4°F31.3°C 75.4°F24.1°C 65% 1.9 mph SE3.1 kmh SE 3.0 mph4.8 kmh 29.88 in1011.9 mb 0.00 in0.0 mm 0.00 in0.0 mm 0.00 in0.0 mm
08:02 PM 88.2°F31.2°C 74.9°F23.8°C 65% 1.0 mph SE1.6 kmh SE 3.0 mph4.8 kmh 29.88 in1011.9 mb 0.00 in0.0 mm 0.00 in0.0 mm 0.00 in0.0 mm
08:07 PM 88.1°F31.2°C 75.1°F23.9°C 65% 1.1 mph ESE1.8 kmh ESE 3.0 mph4.8 kmh 29.88 in1011.9 mb 0.00 in0.0 mm 0.00 in0.0 mm 0.00 in0.0 mm
08:12 PM 88.0°F31.1°C 75.5°F24.2°C 66% 1.0 mph ESE1.6 kmh ESE 3.0 mph4.8 kmh 29.89 in1012.2 mb 0.00 in0.0 mm 0.00 in0.0 mm 0.00 in0.0 mm
08:17 PM 87.9°F31.1°C 75.4°F24.1°C 66% 1.0 mph ESE1.6 kmh ESE 3.0 mph4.8 kmh 29.89 in1012.2 mb 0.00 in0.0 mm 0.00 in0.0 mm 0.00 in0.0 mm
08:22 PM 87.7°F30.9°C 74.9°F23.8°C 66% 1.0 mph ESE1.6 kmh ESE 2.0 mph3.2 kmh 29.89 in1012.2 mb 0.00 in0.0 mm 0.00 in0.0 mm 0.00 in0.0 mm
08:27 PM 87.5°F30.8°C 75.5°F24.2°C 67% 1.3 mph SE2.1 kmh SE 2.0 mph3.2 kmh 29.89 in1012.2 mb 0.00 in0.0 mm 0.00 in0.0 mm 0.00 in0.0 mm
08:32 PM 87.4°F30.8°C 75.1°F23.9°C 67% 1.7 mph SE2.7 kmh SE 3.0 mph4.8 kmh 29.89 in1012.2 mb 0.00 in0.0 mm 0.00 in0.0 mm 0.00 in0.0 mm
08:37 PM 87.2°F30.7°C 75.6°F24.2°C 68% 1.7 mph SE2.7 kmh SE 3.0 mph4.8 kmh 29.89 in1012.2 mb 0.00 in0.0 mm 0.00 in0.0 mm 0.00 in0.0 mm
08:42 PM 86.8°F30.4°C 75.7°F24.3°C 69% 1.1 mph SE1.8 kmh SE 3.0 mph4.8 kmh 29.89 in1012.2 mb 0.00 in0.0 mm 0.00 in0.0 mm 0.00 in0.0 mm
08:47 PM 86.7°F30.4°C 75.6°F24.2°C 69% 2.6 mph SE4.2 kmh SE 4.0 mph6.4 kmh 29.89 in1012.2 mb 0.00 in0.0 mm 0.00 in0.0 mm 0.00 in0.0 mm
08:52 PM 86.8°F30.4°C 75.7°F24.3°C 69% 2.1 mph SE3.4 kmh SE 4.0 mph6.4 kmh 29.89 in1012.2 mb 0.00 in0.0 mm 0.00 in0.0 mm 0.00 in0.0 mm
08:57 PM 86.8°F30.4°C 75.2°F24.0°C 68% 2.4 mph SE3.9 kmh SE 5.0 mph8.0 kmh 29.89 in1012.2 mb 0.00 in0.0 mm 0.00 in0.0 mm 0.00 in0.0 mm
09:02 PM 86.7°F30.4°C 75.6°F24.2°C 69% 2.7 mph SE4.3 kmh SE 5.0 mph8.0 kmh 29.89 in1012.2 mb 0.00 in0.0 mm 0.00 in0.0 mm 0.00 in0.0 mm
09:07 PM 86.6°F30.3°C 75.5°F24.2°C 69% 2.0 mph SE3.2 kmh SE 5.0 mph8.0 kmh 29.90 in1012.5 mb 0.00 in0.0 mm 0.00 in0.0 mm 0.00 in0.0 mm
09:12 PM 86.4°F30.2°C 75.7°F24.3°C 70% 1.1 mph SE1.8 kmh SE 5.0 mph8.0 kmh 29.90 in1012.5 mb 0.00 in0.0 mm 0.00 in0.0 mm 0.00 in0.0 mm
09:17 PM 86.2°F30.1°C 75.7°F24.3°C 71% 1.3 mph SE2.1 kmh SE 5.0 mph8.0 kmh 29.90 in1012.5 mb 0.00 in0.0 mm 0.00 in0.0 mm 0.00 in0.0 mm
09:22 PM 85.9°F29.9°C 75.6°F24.2°C 71% 1.4 mph SE2.3 kmh SE 5.0 mph8.0 kmh 29.90 in1012.5 mb 0.00 in0.0 mm 0.00 in0.0 mm 0.00 in0.0 mm
09:27 PM 85.8°F29.9°C 75.6°F24.2°C 71% 1.3 mph SE2.1 kmh SE 4.0 mph6.4 kmh 29.90 in1012.5 mb 0.00 in0.0 mm 0.00 in0.0 mm 0.00 in0.0 mm
09:32 PM 85.6°F29.8°C 75.5°F24.2°C 72% 1.6 mph SSE2.6 kmh SSE 4.0 mph6.4 kmh 29.90 in1012.5 mb 0.00 in0.0 mm 0.00 in0.0 mm 0.00 in0.0 mm
09:37 PM 85.5°F29.7°C 75.7°F24.3°C 72% 1.0 mph SE1.6 kmh SE 4.0 mph6.4 kmh 29.90 in1012.5 mb 0.00 in0.0 mm 0.00 in0.0 mm 0.00 in0.0 mm
09:42 PM 85.3°F29.6°C 75.5°F24.2°C 72% 1.1 mph SE1.8 kmh SE 4.0 mph6.4 kmh 29.90 in1012.5 mb 0.00 in0.0 mm 0.00 in0.0 mm 0.00 in0.0 mm
09:47 PM 85.2°F29.6°C 75.8°F24.3°C 73% 1.2 mph SE1.9 kmh SE 4.0 mph6.4 kmh 29.91 in1012.9 mb 0.00 in0.0 mm 0.00 in0.0 mm 0.00 in0.0 mm
09:52 PM 85.1°F29.5°C 75.7°F24.3°C 73% 1.6 mph SE2.6 kmh SE 3.0 mph4.8 kmh 29.91 in1012.9 mb 0.00 in0.0 mm 0.00 in0.0 mm 0.00 in0.0 mm
09:57 PM 85.0°F29.4°C 75.6°F24.2°C 73% 1.3 mph SE2.1 kmh SE 3.0 mph4.8 kmh 29.91 in1012.9 mb 0.00 in0.0 mm 0.00 in0.0 mm 0.00 in0.0 mm
10:02 PM 84.9°F29.4°C 75.7°F24.3°C 74% 1.3 mph SSE2.1 kmh SSE 3.0 mph4.8 kmh 29.91 in1012.9 mb 0.00 in0.0 mm 0.00 in0.0 mm 0.00 in0.0 mm
10:07 PM 84.8°F29.3°C 75.8°F24.3°C 74% 1.0 mph SE1.6 kmh SE 3.0 mph4.8 kmh 29.91 in1012.9 mb 0.00 in0.0 mm 0.00 in0.0 mm 0.00 in0.0 mm
10:12 PM 84.6°F29.2°C 76.0°F24.4°C 75% 1.1 mph SSE1.8 kmh SSE 2.0 mph3.2 kmh 29.91 in1012.9 mb 0.00 in0.0 mm 0.00 in0.0 mm 0.00 in0.0 mm
10:17 PM 84.5°F29.2°C 75.7°F24.3°C 75% 1.0 mph SW1.6 kmh SW 2.0 mph3.2 kmh 29.91 in1012.9 mb 0.00 in0.0 mm 0.00 in0.0 mm 0.00 in0.0 mm
10:22 PM 84.3°F29.1°C 76.1°F24.5°C 76% Calm Calm 2.0 mph3.2 kmh 29.91 in1012.9 mb 0.00 in0.0 mm 0.00 in0.0 mm 0.00 in0.0 mm
10:27 PM 84.1°F28.9°C 75.9°F24.4°C 76% Calm Calm 2.0 mph3.2 kmh 29.91 in1012.9 mb 0.00 in0.0 mm 0.00 in0.0 mm 0.00 in0.0 mm
10:32 PM 84.0°F28.9°C 75.8°F24.3°C 76% Calm Calm 2.0 mph3.2 kmh 29.91 in1012.9 mb 0.00 in0.0 mm 0.00 in0.0 mm 0.00 in0.0 mm
10:37 PM 83.9°F28.8°C 76.1°F24.5°C 77% 1.0 mph SE1.6 kmh SE 2.0 mph3.2 kmh 29.91 in1012.9 mb 0.00 in0.0 mm 0.00 in0.0 mm 0.00 in0.0 mm
10:42 PM 83.9°F28.8°C 76.1°F24.5°C 77% 1.2 mph SSE1.9 kmh SSE 2.0 mph3.2 kmh 29.92 in1013.2 mb 0.00 in0.0 mm 0.00 in0.0 mm 0.00 in0.0 mm
10:47 PM 83.8°F28.8°C 76.0°F24.4°C 77% 1.8 mph SE2.9 kmh SE 2.0 mph3.2 kmh 29.92 in1013.2 mb 0.00 in0.0 mm 0.00 in0.0 mm 0.00 in0.0 mm
10:52 PM 83.7°F28.7°C 76.3°F24.6°C 78% 1.7 mph S2.7 kmh S 3.0 mph4.8 kmh 29.92 in1013.2 mb 0.00 in0.0 mm 0.00 in0.0 mm 0.00 in0.0 mm
10:57 PM 83.6°F28.7°C 76.2°F24.6°C 78% Calm Calm 3.0 mph4.8 kmh 29.92 in1013.2 mb 0.00 in0.0 mm 0.00 in0.0 mm 0.00 in0.0 mm
11:02 PM 83.4°F28.6°C 76.3°F24.6°C 79% Calm Calm 3.0 mph4.8 kmh 29.92 in1013.2 mb 0.00 in0.0 mm 0.00 in0.0 mm 0.00 in0.0 mm
11:07 PM 83.2°F28.4°C 76.1°F24.5°C 79% 1.0 mph SE1.6 kmh SE 3.0 mph4.8 kmh 29.92 in1013.2 mb 0.00 in0.0 mm 0.00 in0.0 mm 0.00 in0.0 mm
11:12 PM 83.0°F28.3°C 76.3°F24.6°C 80% Calm Calm 2.0 mph3.2 kmh 29.92 in1013.2 mb 0.00 in0.0 mm 0.00 in0.0 mm 0.00 in0.0 mm
11:17 PM 82.8°F28.2°C 76.0°F24.4°C 80% 1.7 mph SSE2.7 kmh SSE 4.0 mph6.4 kmh 29.92 in1013.2 mb 0.00 in0.0 mm 0.00 in0.0 mm 0.00 in0.0 mm
11:22 PM 82.7°F28.2°C 76.4°F24.7°C 81% 1.0 mph SE1.6 kmh SE 4.0 mph6.4 kmh 29.92 in1013.2 mb 0.00 in0.0 mm 0.00 in0.0 mm 0.00 in0.0 mm
11:27 PM 82.5°F28.1°C 76.2°F24.6°C 81% Calm Calm 4.0 mph6.4 kmh 29.92 in1013.2 mb 0.00 in0.0 mm 0.00 in0.0 mm 0.00 in0.0 mm
11:32 PM 82.4°F28.0°C 76.3°F24.6°C 82% 1.5 mph SE2.4 kmh SE 3.0 mph4.8 kmh 29.92 in1013.2 mb 0.00 in0.0 mm 0.00 in0.0 mm 0.00 in0.0 mm
11:37 PM 82.2°F27.9°C 76.3°F24.6°C 82% 2.4 mph SE3.9 kmh SE 6.0 mph9.7 kmh 29.92 in1013.2 mb 0.00 in0.0 mm 0.00 in0.0 mm 0.00 in0.0 mm
11:42 PM 82.1°F27.8°C 76.2°F24.6°C 82% 2.6 mph SE4.2 kmh SE 6.0 mph9.7 kmh 29.92 in1013.2 mb 0.00 in0.0 mm 0.00 in0.0 mm 0.00 in0.0 mm
11:46 PM 82.0°F27.8°C 76.4°F24.7°C 83% 2.8 mph S4.5 kmh S 6.0 mph9.7 kmh 29.92 in1013.2 mb 0.00 in0.0 mm 0.00 in0.0 mm 0.00 in0.0 mm
11:51 PM 81.9°F27.7°C 76.2°F24.6°C 83% 2.0 mph S3.2 kmh S 6.0 mph9.7 kmh 29.92 in1013.2 mb 0.00 in0.0 mm 0.00 in0.0 mm 0.00 in0.0 mm
11:56 PM 81.7°F27.6°C 76.1°F24.5°C 83% 1.1 mph SSE1.8 kmh SSE 6.0 mph9.7 kmh 29.92 in1013.2 mb 0.00 in0.0 mm 0.00 in0.0 mm 0.00 in0.0 mm